createdAt,value
2023-04-18T00:00:58.714Z,664.5833
2023-04-18T00:02:02.663Z,671.1667
2023-04-18T00:03:06.802Z,671.5000
2023-04-18T00:04:11.045Z,667.4167
2023-04-18T00:05:15.275Z,670.0833
2023-04-18T00:06:19.172Z,671.5833
2023-04-18T00:07:23.086Z,669.2500
2023-04-18T00:08:26.981Z,669.1667
2023-04-18T00:09:30.925Z,668.9167
2023-04-18T00:10:35.049Z,668.7500
2023-04-18T00:11:38.956Z,668.3333
2023-04-18T00:12:43.312Z,666.2500
2023-04-18T00:13:47.241Z,670.2500
2023-04-18T00:14:51.124Z,671.5833
2023-04-18T00:15:55.054Z,671.4167
2023-04-18T00:16:58.988Z,671.0833
2023-04-18T00:18:03.328Z,669.1667
2023-04-18T00:19:07.280Z,667.8333
2023-04-18T00:20:11.450Z,666.5833
2023-04-18T00:21:15.331Z,671.1667
2023-04-18T00:22:19.247Z,667.5833
2023-04-18T00:23:23.155Z,669.5000
2023-04-18T00:24:27.054Z,670.6667
2023-04-18T00:25:30.972Z,669.5000
2023-04-18T00:26:34.872Z,670.4167
2023-04-18T00:27:39.049Z,670.9167
2023-04-18T00:28:42.926Z,669.4167
2023-04-18T00:29:47.072Z,670.0833
2023-04-18T00:30:50.988Z,670.7500
2023-04-18T00:31:54.874Z,667.9167
2023-04-18T00:32:58.807Z,668.3333
2023-04-18T00:34:02.716Z,670.5000
2023-04-18T00:35:06.947Z,669.8333
2023-04-18T00:36:10.849Z,672.1667
2023-04-18T00:37:14.771Z,670.2500
2023-04-18T00:38:18.720Z,666.4167
2023-04-18T00:39:22.617Z,666.4167
2023-04-18T00:40:26.781Z,669.0000
2023-04-18T00:41:30.709Z,672.3333
2023-04-18T00:42:34.913Z,674.6667
2023-04-18T00:43:38.989Z,675.5833
2023-04-18T00:44:42.899Z,673.9167
2023-04-18T00:45:46.828Z,672.1667
2023-04-18T00:46:50.722Z,671.4167
2023-04-18T00:47:54.656Z,670.0833
2023-04-18T00:48:58.586Z,671.6667
2023-04-18T00:50:02.492Z,672.6667
2023-04-18T00:51:06.400Z,672.2500
2023-04-18T00:52:10.305Z,669.6667
2023-04-18T00:53:14.215Z,672.0833
2023-04-18T00:54:18.125Z,671.9167
2023-04-18T00:55:22.247Z,674.5000
2023-04-18T00:56:26.167Z,672.4167
2023-04-18T00:57:30.286Z,675.5000
2023-04-18T00:58:34.196Z,673.5000
2023-04-18T00:59:38.107Z,671.0000
2023-04-18T01:00:42.017Z,670.8333
2023-04-18T01:01:45.926Z,673.8333
2023-04-18T01:02:50.302Z,674.3333
2023-04-18T01:03:54.318Z,674.0833
2023-04-18T01:04:58.520Z,672.7500
2023-04-18T01:06:02.413Z,675.5000
2023-04-18T01:07:06.369Z,673.3333
2023-04-18T01:08:10.238Z,668.9167
2023-04-18T01:09:14.161Z,671.0833
2023-04-18T01:10:18.384Z,672.6667
2023-04-18T01:11:22.275Z,668.4167
2023-04-18T01:12:26.186Z,671.3333
2023-04-18T01:13:30.081Z,672.5833
2023-04-18T01:14:33.987Z,675.5833
2023-04-18T01:15:37.948Z,675.8333
2023-04-18T01:16:41.814Z,673.9167
2023-04-18T01:17:45.729Z,675.0833
2023-04-18T01:18:49.657Z,676.0000
2023-04-18T01:19:53.817Z,675.6667
2023-04-18T01:20:57.730Z,674.1667
2023-04-18T01:22:01.622Z,675.9167
2023-04-18T01:23:05.528Z,674.0833
2023-04-18T01:24:09.429Z,671.5000
2023-04-18T01:25:13.334Z,675.0000
2023-04-18T01:26:17.269Z,670.8333
2023-04-18T01:27:21.442Z,674.1667
2023-04-18T01:28:25.337Z,674.5000
2023-04-18T01:29:29.480Z,671.6667
2023-04-18T01:30:33.387Z,672.8333
2023-04-18T01:31:37.346Z,672.2500
2023-04-18T01:32:41.293Z,675.5000
2023-04-18T01:33:45.187Z,673.1667
2023-04-18T01:34:49.114Z,675.5833
2023-04-18T01:35:53.029Z,675.8333
2023-04-18T01:36:56.922Z,673.0000
2023-04-18T01:38:00.827Z,677.0000
2023-04-18T01:39:04.741Z,675.2500
2023-04-18T01:40:08.979Z,673.4167
2023-04-18T01:41:12.859Z,670.1667
2023-04-18T01:42:16.773Z,671.6667
2023-04-18T01:43:20.684Z,672.0000
2023-04-18T01:44:24.594Z,672.3333
2023-04-18T01:45:28.511Z,672.9167
2023-04-18T01:46:32.473Z,671.9167
2023-04-18T01:47:36.558Z,670.5833
2023-04-18T01:48:40.483Z,671.7500
2023-04-18T01:49:44.374Z,669.0000
2023-04-18T01:50:48.287Z,669.7500
2023-04-18T01:51:52.181Z,672.8333
2023-04-18T01:52:56.107Z,673.9167
2023-04-18T01:54:00.020Z,669.2500
2023-04-18T01:55:04.146Z,671.2500
2023-04-18T01:56:08.070Z,671.7500
2023-04-18T01:57:12.005Z,673.3333
2023-04-18T01:58:15.909Z,672.9167
2023-04-18T01:59:19.810Z,671.0000
2023-04-18T02:00:23.934Z,671.6667
2023-04-18T02:01:27.888Z,670.0000
2023-04-18T02:02:32.087Z,672.0000
2023-04-18T02:03:36.259Z,671.2500
2023-04-18T02:04:40.236Z,667.0833
2023-04-18T02:05:44.171Z,669.2500
2023-04-18T02:06:48.079Z,668.3333
2023-04-18T02:07:52.008Z,667.5000
2023-04-18T02:08:55.934Z,665.5000
2023-04-18T02:10:00.071Z,670.4167
2023-04-18T02:11:03.934Z,674.3333
2023-04-18T02:12:08.084Z,668.5833
2023-04-18T02:13:11.989Z,672.0833
2023-04-18T02:14:15.928Z,672.5833
2023-04-18T02:15:19.888Z,670.7500
2023-04-18T02:16:23.831Z,670.5833
2023-04-18T02:17:27.740Z,667.8333
2023-04-18T02:18:31.607Z,669.8333
2023-04-18T02:19:35.765Z,670.6667
2023-04-18T02:20:39.651Z,670.8333
2023-04-18T02:21:43.557Z,670.0000
2023-04-18T02:22:47.466Z,668.4167
2023-04-18T02:23:51.383Z,668.0833
2023-04-18T02:24:55.532Z,671.4167
2023-04-18T02:25:59.436Z,670.4167
2023-04-18T02:27:03.329Z,671.1667
2023-04-18T02:28:07.229Z,671.3333
2023-04-18T02:29:11.134Z,673.8333
2023-04-18T02:30:15.029Z,669.0833
2023-04-18T02:31:18.931Z,670.6667
2023-04-18T02:32:22.850Z,673.5000
2023-04-18T02:33:26.745Z,676.4167
2023-04-18T02:34:30.956Z,673.5000
2023-04-18T02:35:34.829Z,673.0000
2023-04-18T02:36:38.711Z,671.8333
2023-04-18T02:37:42.608Z,673.8333
2023-04-18T02:38:46.493Z,670.7500
2023-04-18T02:39:50.396Z,674.1667
2023-04-18T02:40:54.308Z,674.7500
2023-04-18T02:41:58.436Z,673.7500
2023-04-18T02:43:02.332Z,673.3333
2023-04-18T02:44:06.237Z,667.8333
2023-04-18T02:45:10.377Z,669.5000
2023-04-18T02:46:14.323Z,672.4167
2023-04-18T02:47:18.207Z,669.7500
2023-04-18T02:48:22.114Z,669.6667
2023-04-18T02:49:25.979Z,670.6667
2023-04-18T02:50:29.887Z,669.4167
2023-04-18T02:51:33.814Z,673.4167
2023-04-18T02:52:37.722Z,672.3333
2023-04-18T02:53:41.658Z,668.5000
2023-04-18T02:54:45.741Z,668.7500
2023-04-18T02:55:49.626Z,672.8333
2023-04-18T02:56:53.740Z,670.5000
2023-04-18T02:57:57.624Z,668.8333
2023-04-18T02:59:01.519Z,671.6667
2023-04-18T03:00:05.381Z,669.4167
2023-04-18T03:01:09.313Z,676.2500
2023-04-18T03:02:13.466Z,672.9167
2023-04-18T03:03:17.391Z,672.6667
2023-04-18T03:04:21.310Z,674.2500
2023-04-18T03:05:25.187Z,671.8333
2023-04-18T03:06:29.074Z,669.9167
2023-04-18T03:07:33.009Z,668.0833
2023-04-18T03:08:36.920Z,669.8333
2023-04-18T03:09:41.040Z,668.6667
2023-04-18T03:10:44.920Z,668.1667
2023-04-18T03:11:48.914Z,667.9167
2023-04-18T03:12:52.804Z,667.7500
2023-04-18T03:13:56.722Z,668.0833
2023-04-18T03:15:00.624Z,669.0000
2023-04-18T03:16:04.629Z,669.9167
2023-04-18T03:17:08.761Z,668.9167
2023-04-18T03:18:12.681Z,666.0000
2023-04-18T03:19:16.831Z,667.6667
2023-04-18T03:20:20.733Z,670.0833
2023-04-18T03:21:24.624Z,672.8333
2023-04-18T03:22:28.525Z,669.5833
2023-04-18T03:23:32.407Z,668.2500
2023-04-18T03:24:36.521Z,667.7500
2023-04-18T03:25:40.402Z,671.3333
2023-04-18T03:26:44.524Z,668.2500
2023-04-18T03:27:48.407Z,667.2500
2023-04-18T03:28:52.301Z,667.6667
2023-04-18T03:29:56.185Z,668.7500
2023-04-18T03:31:00.144Z,664.5833
2023-04-18T03:32:04.055Z,667.6667
2023-04-18T03:33:07.953Z,668.8333
2023-04-18T03:34:12.120Z,667.2500
2023-04-18T03:35:16.217Z,666.3333
2023-04-18T03:36:20.138Z,665.5000
2023-04-18T03:37:24.046Z,666.6667
2023-04-18T03:38:27.944Z,666.8333
2023-04-18T03:39:32.078Z,667.3333
2023-04-18T03:40:35.966Z,667.0000
2023-04-18T03:41:39.835Z,667.8333
2023-04-18T03:42:43.724Z,667.1667
2023-04-18T03:43:47.594Z,666.8333
2023-04-18T03:44:51.498Z,664.0000
2023-04-18T03:45:55.411Z,666.9167
2023-04-18T03:46:59.614Z,665.5833
2023-04-18T03:48:03.502Z,667.7500
2023-04-18T03:49:07.560Z,668.9167
2023-04-18T03:50:11.439Z,668.1667
2023-04-18T03:51:15.316Z,667.3333
2023-04-18T03:52:19.198Z,666.1667
2023-04-18T03:53:23.081Z,669.0833
2023-04-18T03:54:27.281Z,664.9167
2023-04-18T03:55:31.172Z,668.2500
2023-04-18T03:56:35.793Z,669.5833
2023-04-18T03:57:41.275Z,671.5000
2023-04-18T03:58:39.983Z,671.0000
2023-04-18T03:59:45.567Z,669.5000
2023-04-18T04:00:45.274Z,669.3636
2023-04-18T04:01:49.488Z,664.5833
2023-04-18T04:02:53.520Z,666.0000
2023-04-18T04:03:57.559Z,667.9167
2023-04-18T04:05:01.519Z,667.7500
2023-04-18T04:06:05.445Z,668.6667
2023-04-18T04:07:09.571Z,667.7500
2023-04-18T04:08:13.475Z,669.2500
2023-04-18T04:09:17.374Z,669.0000
2023-04-18T04:10:21.282Z,665.4167
2023-04-18T04:11:25.197Z,666.3333
2023-04-18T04:12:29.156Z,667.1667
2023-04-18T04:13:33.036Z,666.9167
2023-04-18T04:14:37.035Z,666.0833
2023-04-18T04:15:40.928Z,658.5833
2023-04-18T04:16:45.027Z,650.0000
2023-04-18T04:17:48.976Z,641.5000
2023-04-18T04:18:52.865Z,637.7500
2023-04-18T04:19:56.748Z,633.0000
2023-04-18T04:21:00.660Z,625.0000
2023-04-18T04:22:04.558Z,623.8333
2023-04-18T04:23:08.467Z,618.8333
2023-04-18T04:24:12.534Z,602.6667
2023-04-18T04:25:16.546Z,594.8333
2023-04-18T04:26:20.460Z,596.5000
2023-04-18T04:27:24.383Z,595.2500
2023-04-18T04:28:28.272Z,592.4167
2023-04-18T04:29:32.423Z,593.0000
2023-04-18T04:30:36.313Z,592.9167
2023-04-18T04:31:40.472Z,592.6667
2023-04-18T04:32:44.375Z,589.2500
2023-04-18T04:33:48.242Z,589.4167
2023-04-18T04:34:52.121Z,589.5833
2023-04-18T04:35:56.024Z,588.0000
2023-04-18T04:36:59.914Z,591.4167
2023-04-18T04:38:03.813Z,588.5833
2023-04-18T04:39:07.938Z,588.7500
2023-04-18T04:40:11.847Z,586.8333
2023-04-18T04:41:15.709Z,586.1667
2023-04-18T04:42:19.588Z,589.0000
2023-04-18T04:43:23.488Z,587.2500
2023-04-18T04:44:27.700Z,588.5000
2023-04-18T04:45:31.612Z,583.6667
2023-04-18T04:46:35.773Z,585.7500
2023-04-18T04:47:39.739Z,587.0000
2023-04-18T04:48:43.649Z,586.4167
2023-04-18T04:49:47.493Z,587.1667
2023-04-18T04:50:51.376Z,585.6667
2023-04-18T04:51:55.285Z,587.4167
2023-04-18T04:52:59.185Z,588.1667
2023-04-18T04:54:03.109Z,584.1667
2023-04-18T04:55:06.988Z,583.5833
2023-04-18T04:56:10.859Z,584.0833
2023-04-18T04:57:14.768Z,585.1667
2023-04-18T04:58:18.685Z,581.0833
2023-04-18T04:59:22.989Z,582.4167
2023-04-18T05:00:26.910Z,584.0833
2023-04-18T05:01:31.061Z,581.1667
2023-04-18T05:02:35.050Z,584.0833
2023-04-18T05:03:39.438Z,583.3333
2023-04-18T05:04:43.431Z,583.4167
2023-04-18T05:05:47.275Z,581.9167
2023-04-18T05:06:51.264Z,579.9167
2023-04-18T05:07:55.153Z,576.5833
2023-04-18T05:08:59.043Z,578.3333
2023-04-18T05:10:02.969Z,574.6667
2023-04-18T05:11:06.863Z,574.5000
2023-04-18T05:12:11.012Z,574.0833
2023-04-18T05:13:14.915Z,576.3333
2023-04-18T05:14:19.025Z,574.9167
2023-04-18T05:15:22.914Z,576.4167
2023-04-18T05:16:26.872Z,577.1667
2023-04-18T05:17:30.789Z,575.0833
2023-04-18T05:18:35.092Z,576.9167
2023-04-18T05:19:39.019Z,573.8333
2023-04-18T05:20:42.901Z,575.5000
2023-04-18T05:21:46.779Z,577.5833
2023-04-18T05:22:50.686Z,577.7500
2023-04-18T05:23:54.867Z,572.5000
2023-04-18T05:24:58.749Z,575.9167
2023-04-18T05:26:02.678Z,570.4167
2023-04-18T05:27:06.592Z,569.6667
2023-04-18T05:28:10.471Z,570.0833
2023-04-18T05:29:14.347Z,570.5833
2023-04-18T05:30:18.264Z,565.6667
2023-04-18T05:31:22.201Z,572.4167
2023-04-18T05:32:26.057Z,576.3333
2023-04-18T05:33:29.953Z,572.2500
2023-04-18T05:34:33.839Z,569.1667
2023-04-18T05:35:37.745Z,574.3333
2023-04-18T05:36:41.658Z,569.1667
2023-04-18T05:37:45.541Z,572.0833
2023-04-18T05:38:49.456Z,573.7500
2023-04-18T05:39:53.343Z,575.0833
2023-04-18T05:40:57.221Z,577.2500
2023-04-18T05:42:01.367Z,578.7500
2023-04-18T05:43:05.269Z,583.3333
2023-04-18T05:44:09.186Z,590.9167
2023-04-18T05:45:13.086Z,588.7500
2023-04-18T05:46:17.300Z,591.5000
2023-04-18T05:47:21.275Z,587.4167
2023-04-18T05:48:25.188Z,581.0000
2023-04-18T05:49:29.063Z,582.2500
2023-04-18T05:50:32.958Z,587.7500
2023-04-18T05:51:37.083Z,587.8333
2023-04-18T05:52:40.984Z,587.2500
2023-04-18T05:53:44.855Z,590.6667
2023-04-18T05:54:48.757Z,590.5000
2023-04-18T05:55:52.635Z,585.3333
2023-04-18T05:56:56.528Z,590.9167
2023-04-18T05:58:00.437Z,590.7500
2023-04-18T05:59:04.587Z,596.0000
2023-04-18T06:00:08.476Z,592.1667
2023-04-18T06:01:12.407Z,593.4167
2023-04-18T06:02:16.379Z,597.0833
2023-04-18T06:03:20.600Z,596.5000
2023-04-18T06:04:24.670Z,598.7500
2023-04-18T06:05:28.899Z,601.5833
2023-04-18T06:06:33.239Z,598.4167
2023-04-18T06:07:37.132Z,602.6667
2023-04-18T06:08:41.055Z,598.7500
2023-04-18T06:09:44.970Z,606.0000
2023-04-18T06:10:48.885Z,599.2500
2023-04-18T06:11:52.828Z,605.7500
2023-04-18T06:12:56.704Z,601.2500
2023-04-18T06:14:00.863Z,604.6667
2023-04-18T06:15:04.762Z,607.1667
2023-04-18T06:16:08.878Z,607.6667
2023-04-18T06:17:12.859Z,610.4167
2023-04-18T06:18:16.738Z,612.0000
2023-04-18T06:19:20.651Z,610.5833
2023-04-18T06:20:24.544Z,611.2500
2023-04-18T06:21:28.436Z,616.5833
2023-04-18T06:22:32.326Z,617.3333
2023-04-18T06:23:36.454Z,618.6667
2023-04-18T06:24:40.345Z,614.5000
2023-04-18T06:25:44.225Z,629.3333
2023-04-18T06:26:48.391Z,625.7500
2023-04-18T06:27:52.270Z,631.0833
2023-04-18T06:28:56.189Z,639.6667
2023-04-18T06:30:00.165Z,646.6667
2023-04-18T06:31:04.081Z,662.8333
2023-04-18T06:32:07.964Z,694.8333
2023-04-18T06:33:11.821Z,722.6667
2023-04-18T06:34:15.905Z,722.4167
2023-04-18T06:35:19.968Z,715.8333
2023-04-18T06:36:24.102Z,689.2500
2023-04-18T06:37:27.995Z,697.0000
2023-04-18T06:38:31.875Z,690.8333
2023-04-18T06:39:35.799Z,684.0833
2023-04-18T06:40:39.738Z,705.3333
2023-04-18T06:41:43.649Z,709.5000
2023-04-18T06:42:47.563Z,719.0833
2023-04-18T06:44:02.851Z,699.0000
2023-04-18T06:44:55.947Z,698.4545
2023-04-18T06:45:59.944Z,665.2500
2023-04-18T06:47:03.845Z,677.5000
2023-04-18T06:48:07.820Z,698.2500
2023-04-18T06:49:11.694Z,707.0000
2023-04-18T06:50:15.579Z,712.0000
2023-04-18T06:51:19.483Z,690.2500
2023-04-18T06:52:23.948Z,657.4167
2023-04-18T06:53:27.818Z,700.4167
2023-04-18T06:54:31.718Z,688.5833
2023-04-18T06:55:35.629Z,661.0833
2023-04-18T06:56:39.565Z,664.4167
2023-04-18T06:57:43.463Z,693.0000
2023-04-18T06:58:47.370Z,699.7500
2023-04-18T06:59:51.261Z,699.5000
2023-04-18T07:00:55.190Z,713.5833
2023-04-18T07:01:59.087Z,694.0833
2023-04-18T07:03:03.101Z,694.3333
2023-04-18T07:04:07.166Z,713.6667
2023-04-18T07:05:11.106Z,721.8333
2023-04-18T07:06:14.995Z,718.6667
2023-04-18T07:07:18.934Z,732.0000
2023-04-18T07:08:22.906Z,743.0000
2023-04-18T07:09:26.860Z,776.2500
2023-04-18T07:10:30.774Z,720.4167
2023-04-18T07:11:34.926Z,711.7500
2023-04-18T07:12:38.833Z,744.6667
2023-04-18T07:13:42.973Z,754.3333
2023-04-18T07:14:46.918Z,765.7500
2023-04-18T07:15:50.813Z,753.4167
2023-04-18T07:16:54.774Z,756.3333
2023-04-18T07:17:58.803Z,747.1667
2023-04-18T07:19:02.704Z,766.7500
2023-04-18T07:20:06.619Z,761.5000
2023-04-18T07:21:10.610Z,766.4167
2023-04-18T07:22:14.531Z,727.7500
2023-04-18T07:23:18.456Z,742.9167
2023-04-18T07:24:22.392Z,756.5833
2023-04-18T07:25:26.310Z,760.2500
2023-04-18T07:26:30.241Z,774.4167
2023-04-18T07:27:34.151Z,771.5000
2023-04-18T07:28:38.401Z,762.1667
2023-04-18T07:29:42.285Z,757.9167
2023-04-18T07:30:46.294Z,754.6667
2023-04-18T07:31:50.216Z,755.6667
2023-04-18T07:32:54.189Z,756.5833
2023-04-18T07:33:58.130Z,787.5833
2023-04-18T07:35:02.157Z,778.6667
2023-04-18T07:36:06.088Z,734.4167
2023-04-18T07:37:10.015Z,795.3333
2023-04-18T07:38:13.963Z,802.3333
2023-04-18T07:39:17.858Z,787.1667
2023-04-18T07:40:21.837Z,765.5000
2023-04-18T07:41:25.730Z,783.5833
2023-04-18T07:42:29.642Z,762.1667
2023-04-18T07:43:33.546Z,747.6667
2023-04-18T07:44:37.509Z,747.5000
2023-04-18T07:45:41.408Z,734.2500
2023-04-18T07:46:45.411Z,743.9167
2023-04-18T07:47:49.388Z,755.2500
2023-04-18T07:48:53.282Z,759.4167
2023-04-18T07:49:57.269Z,745.4167
2023-04-18T07:51:01.187Z,755.1667
2023-04-18T07:52:05.123Z,752.3333
2023-04-18T07:53:09.292Z,751.9167
2023-04-18T07:54:13.242Z,751.0000
2023-04-18T07:55:17.170Z,745.5000
2023-04-18T07:56:21.097Z,746.9167
2023-04-18T07:57:25.019Z,741.2500
2023-04-18T07:58:28.956Z,753.0833
2023-04-18T07:59:32.871Z,721.1667
2023-04-18T08:00:36.827Z,725.2500
2023-04-18T08:01:40.799Z,745.4167
2023-04-18T08:02:44.814Z,752.5000
2023-04-18T08:03:48.868Z,759.9167
2023-04-18T08:04:53.054Z,755.3333
2023-04-18T08:05:57.126Z,759.4167
2023-04-18T08:07:01.070Z,755.7500
2023-04-18T08:08:05.014Z,749.5833
2023-04-18T08:09:08.919Z,747.0000
2023-04-18T08:10:13.107Z,733.2500
2023-04-18T08:11:17.010Z,731.3333
2023-04-18T08:12:20.940Z,745.5833
2023-04-18T08:13:24.873Z,757.7500
2023-04-18T08:14:28.848Z,746.8333
2023-04-18T08:15:33.050Z,785.1667
2023-04-18T08:16:37.002Z,1033.2500
2023-04-18T08:17:40.979Z,900.0833
2023-04-18T08:18:44.906Z,851.5833
2023-04-18T08:19:48.859Z,815.3333
2023-04-18T08:20:52.817Z,800.2500
2023-04-18T08:21:56.886Z,789.2500
2023-04-18T08:23:07.323Z,784.2500
2023-04-18T08:24:05.406Z,782.0909
2023-04-18T08:25:09.505Z,807.1667
2023-04-18T08:26:13.426Z,812.4167
2023-04-18T08:27:17.367Z,804.0000
2023-04-18T08:28:21.536Z,795.1667
2023-04-18T08:29:25.446Z,792.0000
2023-04-18T08:30:29.429Z,779.1667
2023-04-18T08:31:33.436Z,757.9167
2023-04-18T08:32:37.507Z,752.5833
2023-04-18T08:33:41.453Z,761.0000
2023-04-18T08:34:45.372Z,747.8333
2023-04-18T08:35:49.334Z,754.0000
2023-04-18T08:36:53.312Z,756.5833
2023-04-18T08:37:57.311Z,751.5000
2023-04-18T08:39:01.236Z,749.5000
2023-04-18T08:40:05.207Z,752.5000
2023-04-18T08:41:09.169Z,746.3333
2023-04-18T08:42:13.082Z,752.0000
2023-04-18T08:43:17.048Z,809.0833
2023-04-18T08:44:21.046Z,1266.7500
2023-04-18T08:45:25.016Z,1653.0000
2023-04-18T08:46:29.261Z,853.8333
2023-04-18T08:47:33.189Z,854.4167
2023-04-18T08:48:37.228Z,853.5000
2023-04-18T08:49:41.161Z,826.7500
2023-04-18T08:50:45.185Z,813.8333
2023-04-18T08:51:49.057Z,806.2500
2023-04-18T08:52:52.993Z,785.0000
2023-04-18T08:53:56.925Z,783.5000
2023-04-18T08:55:01.006Z,815.5000
2023-04-18T08:56:04.935Z,869.2500
2023-04-18T08:57:09.009Z,835.1667
2023-04-18T08:58:13.015Z,795.0000
2023-04-18T08:59:16.993Z,786.0833
2023-04-18T09:00:21.005Z,777.0833
2023-04-18T09:01:24.966Z,773.7500
2023-04-18T09:02:28.920Z,772.3333
2023-04-18T09:03:32.870Z,767.0000
2023-04-18T09:04:36.959Z,767.0833
2023-04-18T09:05:41.186Z,771.5833
2023-04-18T09:06:46.050Z,767.7500
2023-04-18T09:07:49.951Z,766.6667
2023-04-18T09:08:53.845Z,761.4167
2023-04-18T09:09:53.969Z,754.0909
2023-04-18T09:10:57.860Z,749.3333
2023-04-18T09:12:01.790Z,750.4167
2023-04-18T09:13:05.699Z,744.4167
2023-04-18T09:14:09.629Z,743.5833
2023-04-18T09:15:13.606Z,740.2500
2023-04-18T09:16:17.561Z,737.2500
2023-04-18T09:17:21.522Z,767.8333
2023-04-18T09:18:25.715Z,801.0833
2023-04-18T09:19:29.644Z,767.4167
2023-04-18T09:20:33.585Z,767.0833
2023-04-18T09:21:37.492Z,764.5833
2023-04-18T09:22:41.406Z,753.0000
2023-04-18T09:23:45.336Z,756.8333
2023-04-18T09:24:49.224Z,763.5833
2023-04-18T09:25:53.154Z,778.0833
2023-04-18T09:26:57.098Z,772.1667
2023-04-18T09:28:01.273Z,756.0833
2023-04-18T09:29:05.358Z,740.7500
2023-04-18T09:30:09.272Z,738.9167
2023-04-18T09:31:13.306Z,745.2500
2023-04-18T09:32:17.314Z,740.9167
2023-04-18T09:33:21.211Z,736.5833
2023-04-18T09:34:25.213Z,730.8333
2023-04-18T09:35:29.103Z,735.2500
2023-04-18T09:36:33.105Z,750.6667
2023-04-18T09:37:37.010Z,810.0000
2023-04-18T09:38:41.112Z,782.9167
2023-04-18T09:39:45.146Z,738.6667
2023-04-18T09:40:49.081Z,734.4167
2023-04-18T09:41:52.990Z,735.5000
2023-04-18T09:42:56.961Z,737.3333
2023-04-18T09:44:00.875Z,730.0833
2023-04-18T09:45:05.121Z,732.0833
2023-04-18T09:46:09.079Z,739.8333
2023-04-18T09:47:13.080Z,754.3333
2023-04-18T09:48:16.973Z,742.8333
2023-04-18T09:49:20.884Z,732.0833
2023-04-18T09:50:24.810Z,731.6667
2023-04-18T09:51:28.783Z,732.5000
2023-04-18T09:52:32.859Z,724.1667
2023-04-18T09:53:36.786Z,706.3333
2023-04-18T09:54:40.666Z,694.9167
2023-04-18T09:55:44.596Z,703.1667
2023-04-18T09:56:48.523Z,692.6667
2023-04-18T09:57:52.704Z,702.4167
2023-04-18T09:58:56.660Z,716.5000
2023-04-18T10:00:00.592Z,719.6667
2023-04-18T10:01:04.513Z,725.2500
2023-04-18T10:02:08.582Z,723.0833
2023-04-18T10:03:12.603Z,720.9167
2023-04-18T10:04:16.971Z,716.3333
2023-04-18T10:05:21.434Z,713.5000
2023-04-18T10:06:25.413Z,712.0000
2023-04-18T10:07:29.306Z,701.7500
2023-04-18T10:08:33.209Z,697.9167
2023-04-18T10:09:37.126Z,702.4167
2023-04-18T10:10:41.096Z,711.3333
2023-04-18T10:11:44.988Z,721.3333
2023-04-18T10:12:48.989Z,733.4167
2023-04-18T10:13:53.035Z,742.5000
2023-04-18T10:14:56.970Z,747.3333
2023-04-18T10:16:00.884Z,732.4167
2023-04-18T10:17:04.767Z,762.4167
2023-04-18T10:18:08.727Z,762.5000
2023-04-18T10:19:13.109Z,787.0000
2023-04-18T10:20:17.226Z,796.2500
2023-04-18T10:21:21.181Z,781.6667
2023-04-18T10:22:25.116Z,790.7500
2023-04-18T10:23:29.055Z,790.5833
2023-04-18T10:24:33.092Z,785.0000
2023-04-18T10:25:37.110Z,788.6667
2023-04-18T10:26:41.061Z,798.9167
2023-04-18T10:27:45.335Z,797.2500
2023-04-18T10:28:49.295Z,798.8333
2023-04-18T10:29:53.275Z,805.8333
2023-04-18T10:30:57.404Z,811.5000
2023-04-18T10:32:01.393Z,800.2500
2023-04-18T10:33:08.494Z,815.2500
2023-04-18T10:34:09.847Z,827.2727
2023-04-18T10:35:13.832Z,851.7500
2023-04-18T10:36:17.805Z,857.7500
2023-04-18T10:37:21.808Z,845.5000
2023-04-18T10:38:25.834Z,845.4167
2023-04-18T10:39:29.777Z,830.6667
2023-04-18T10:40:33.781Z,819.6667
2023-04-18T10:41:37.754Z,842.2500
2023-04-18T10:42:41.748Z,841.5000
2023-04-18T10:43:45.648Z,838.0000
2023-04-18T10:44:49.897Z,819.1667
2023-04-18T10:45:53.917Z,836.9167
2023-04-18T10:46:57.864Z,842.5000
2023-04-18T10:47:58.343Z,832.2727
2023-04-18T10:49:02.248Z,812.0000
2023-04-18T10:50:06.968Z,790.2500
2023-04-18T10:51:11.075Z,825.3333
2023-04-18T10:52:15.037Z,820.4167
2023-04-18T10:53:18.986Z,809.1667
2023-04-18T10:54:22.975Z,802.6667
2023-04-18T10:55:27.103Z,815.7500
2023-04-18T10:56:31.115Z,808.3333
2023-04-18T10:57:35.247Z,800.3333
2023-04-18T10:58:39.147Z,807.2500
2023-04-18T10:59:43.102Z,788.0000
2023-04-18T11:00:47.121Z,801.4167
2023-04-18T11:01:51.026Z,789.9167
2023-04-18T11:02:55.190Z,802.4167
2023-04-18T11:03:59.297Z,812.0833
2023-04-18T11:05:03.299Z,842.8333
2023-04-18T11:06:07.239Z,866.2500
2023-04-18T11:07:11.788Z,802.1667
2023-04-18T11:08:15.838Z,831.6667
2023-04-18T11:09:19.795Z,813.0833
2023-04-18T11:10:23.902Z,792.7500
2023-04-18T11:11:27.828Z,817.9167
2023-04-18T11:12:31.782Z,817.0833
2023-04-18T11:13:35.771Z,849.0000
2023-04-18T11:14:39.824Z,873.3333
2023-04-18T11:15:43.783Z,871.8333
2023-04-18T11:16:47.858Z,848.3333
2023-04-18T11:17:51.907Z,904.6667
2023-04-18T11:18:55.888Z,919.2500
2023-04-18T11:19:59.927Z,933.5833
2023-04-18T11:21:03.951Z,946.5000
2023-04-18T11:22:07.906Z,934.5000
2023-04-18T11:23:11.944Z,913.0833
2023-04-18T11:24:16.039Z,939.5833
2023-04-18T11:25:20.147Z,1024.7500
2023-04-18T11:26:24.217Z,988.6667
2023-04-18T11:27:28.163Z,941.3333
2023-04-18T11:28:32.167Z,1035.7500
2023-04-18T11:29:36.468Z,1020.5000
2023-04-18T11:30:40.361Z,980.2500
2023-04-18T11:31:44.378Z,996.4167
2023-04-18T11:32:48.354Z,964.2500
2023-04-18T11:33:52.287Z,1006.7500
2023-04-18T11:34:56.268Z,988.9167
2023-04-18T11:36:00.288Z,948.6667
2023-04-18T11:37:04.213Z,923.1667
2023-04-18T11:38:08.157Z,945.5833
2023-04-18T11:39:12.117Z,885.4167
2023-04-18T11:40:16.277Z,874.4167
2023-04-18T11:41:20.242Z,878.2500
2023-04-18T11:42:24.457Z,911.8333
2023-04-18T11:43:28.352Z,853.9167
2023-04-18T11:44:33.764Z,839.4167
2023-04-18T11:45:34.096Z,817.5455
2023-04-18T11:46:38.368Z,839.5000
2023-04-18T11:47:42.579Z,828.5833
2023-04-18T11:48:46.499Z,826.3333
2023-04-18T11:49:50.509Z,803.6667
2023-04-18T11:50:54.465Z,803.9167
2023-04-18T11:51:58.627Z,806.6667
2023-04-18T11:53:02.537Z,822.8333
2023-04-18T11:54:06.465Z,793.1667
2023-04-18T11:55:10.660Z,792.4167
2023-04-18T11:56:14.585Z,806.7500
2023-04-18T11:57:18.523Z,815.1667
2023-04-18T11:58:22.461Z,810.3333
2023-04-18T11:59:26.400Z,784.8333
2023-04-18T12:00:30.383Z,761.0833
2023-04-18T12:01:34.281Z,763.8333
2023-04-18T12:02:38.472Z,753.2500
2023-04-18T12:03:42.669Z,761.6667
2023-04-18T12:04:47.037Z,787.1667
2023-04-18T12:05:51.370Z,778.4167
2023-04-18T12:06:55.393Z,785.6667
2023-04-18T12:07:59.291Z,814.9167
2023-04-18T12:09:03.193Z,817.9167
2023-04-18T12:10:07.370Z,786.9167
2023-04-18T12:11:11.320Z,774.1667
2023-04-18T12:12:15.275Z,779.7500
2023-04-18T12:13:19.238Z,793.9167
2023-04-18T12:14:23.292Z,767.9167
2023-04-18T12:15:27.304Z,758.5000
2023-04-18T12:16:31.295Z,758.6667
2023-04-18T12:17:35.275Z,769.5833
2023-04-18T12:18:39.271Z,784.0000
2023-04-18T12:19:43.132Z,787.5833
2023-04-18T12:20:47.105Z,784.5833
2023-04-18T12:21:51.050Z,794.6667
2023-04-18T12:22:55.052Z,793.9167
2023-04-18T12:23:58.979Z,797.0000
2023-04-18T12:25:02.885Z,807.2500
2023-04-18T12:26:06.816Z,801.3333
2023-04-18T12:27:11.025Z,779.3333
2023-04-18T12:28:14.975Z,798.5833
2023-04-18T12:29:19.292Z,792.4167
2023-04-18T12:30:23.187Z,790.3333
2023-04-18T12:31:27.214Z,784.1667